Time;durP1;ratioP1;P1;durP2;ratioP2;P2;SDS_P1;SDS_P2;PMS_P1;PMS_P2;Temp;Humidity;BMP_temperature;BMP_pressure;BME280_temperature;BME280_humidity;BME280_pressure;Samples;Min_cycle;Max_cycle;Signal;HPM_P1;HPM_P2
2022/01/21 00:00:15;;;;;;;13.88;3.03;;;;;;;2.79;84.94;101497.16;5072540;28;20031;-76
2022/01/21 00:02:41;;;;;;;9.90;2.80;;;;;;;2.80;85.00;101494.47;5079566;28;20046;-75
2022/01/21 00:05:07;;;;;;;7.57;2.80;;;;;;;2.77;85.01;101478.72;5072372;28;20032;-76
2022/01/21 00:07:32;;;;;;;6.72;2.80;;;;;;;2.83;84.98;101490.88;5071105;28;20102;-76
2022/01/21 00:09:57;;;;;;;8.23;3.50;;;;;;;2.80;84.52;101488.34;5073792;28;20046;-76
2022/01/21 00:12:24;;;;;;;6.38;2.97;;;;;;;2.81;84.61;101484.78;5079005;28;20059;-75
2022/01/21 00:14:49;;;;;;;7.70;3.08;;;;;;;2.77;84.80;101481.38;5073052;28;20658;-77
2022/01/21 00:17:17;;;;;;;11.38;3.22;;;;;;;2.75;85.52;101472.63;5071664;28;20029;-76
2022/01/21 00:19:45;;;;;;;9.27;3.38;;;;;;;2.79;85.11;101476.03;5072444;28;20054;-75
2022/01/21 00:30:25;;;;;;;11.27;3.33;;;;;;;2.57;85.05;101453.91;5090359;28;20068;-76
2022/01/21 00:32:51;;;;;;;7.88;2.90;;;;;;;2.61;85.58;101461.69;5071900;28;20036;-76
2022/01/21 00:35:18;;;;;;;9.60;3.15;;;;;;;2.62;85.96;101465.19;5079512;28;20028;-76
2022/01/21 00:37:43;;;;;;;9.10;3.22;;;;;;;2.61;85.80;101466.97;5078577;28;20741;-75
2022/01/21 00:40:13;;;;;;;8.63;3.17;;;;;;;2.59;85.86;101470.56;5076513;28;20035;-76
2022/01/21 00:45:10;;;;;;;8.40;2.83;;;;;;;2.64;85.58;101485.34;5094102;28;20033;-75
2022/01/21 00:47:36;;;;;;;8.68;2.92;;;;;;;2.53;85.16;101476.91;5078328;28;20036;-76
2022/01/21 00:50:01;;;;;;;7.20;2.72;;;;;;;2.59;85.95;101473.19;5092742;28;20028;-76
2022/01/21 00:52:26;;;;;;;8.40;3.00;;;;;;;2.64;85.82;101482.69;5078201;28;20034;-76
2022/01/21 00:54:52;;;;;;;10.18;2.85;;;;;;;2.64;85.42;101482.69;5076387;28;20032;-76
2022/01/21 00:57:20;;;;;;;8.45;2.83;;;;;;;2.67;86.16;101481.72;5082306;28;21181;-76
2022/01/21 00:59:45;;;;;;;7.60;3.42;;;;;;;2.69;85.33;101486.06;5075389;28;20028;-75
2022/01/21 01:02:10;;;;;;;10.02;2.97;;;;;;;2.71;85.87;101484.22;5091410;28;20560;-76
2022/01/21 01:04:36;;;;;;;9.00;3.08;;;;;;;2.70;85.78;101481.63;5081731;28;20040;-76
2022/01/21 01:07:02;;;;;;;9.30;3.20;;;;;;;2.73;85.67;101484.16;5075249;28;20105;-76
2022/01/21 01:09:27;;;;;;;9.05;3.03;;;;;;;2.77;86.36;101491.94;5075344;28;20119;-75
2022/01/21 01:20:04;;;;;;;8.05;2.95;;;;;;;2.72;85.53;101487.72;5091509;28;20050;-75
2022/01/21 01:27:55;;;;;;;9.43;2.83;;;;;;;2.68;86.15;101481.69;5094025;28;20042;-75
2022/01/21 01:30:25;;;;;;;7.55;2.80;;;;;;;2.61;85.98;101484.56;5074314;28;20104;-76
2022/01/21 01:32:51;;;;;;;13.25;3.63;;;;;;;2.63;86.17;101475.69;5092102;28;20036;-76
2022/01/21 01:35:19;;;;;;;7.47;3.05;;;;;;;2.58;85.96;101476.75;5083433;28;20095;-76
2022/01/21 01:40:31;;;;;;;7.05;2.92;;;;;;;2.54;85.71;101473.34;5091344;28;21373;-75
2022/01/21 01:50:52;;;;;;;12.00;3.47;;;;;;;2.59;85.82;101467.91;5092096;28;20039;-77
2022/01/21 01:53:23;;;;;;;10.48;2.95;;;;;;;2.61;85.96;101452.88;5075182;28;20040;-76
2022/01/21 01:55:52;;;;;;;9.57;3.20;;;;;;;2.63;86.31;101462.47;5092514;28;20034;-76
2022/01/21 01:58:17;;;;;;;8.88;3.38;;;;;;;2.59;85.53;101465.28;5075672;28;20398;-75
2022/01/21 02:00:43;;;;;;;11.10;3.80;;;;;;;2.56;86.13;101463.59;5074297;28;20035;-75
2022/01/21 02:03:14;;;;;;;11.55;3.65;;;;;;;2.50;86.38;101464.66;5077221;28;20054;-76
2022/01/21 02:05:40;;;;;;;11.65;3.55;;;;;;;2.56;86.81;101474.16;5090888;28;20020;-75
2022/01/21 02:08:06;;;;;;;11.52;3.50;;;;;;;2.61;86.41;101466.97;5075139;28;20059;-76
2022/01/21 02:10:31;;;;;;;8.45;3.22;;;;;;;2.68;86.55;101472.91;5075324;28;20036;-75
2022/01/21 02:13:03;;;;;;;11.48;3.63;;;;;;;2.69;86.21;101477.25;5074138;28;20564;-75
2022/01/21 02:15:29;;;;;;;11.15;3.53;;;;;;;2.70;86.56;101476.34;5075341;28;20130;-75
2022/01/21 02:23:25;;;;;;;9.18;3.70;;;;;;;2.71;86.62;101484.22;5091782;28;20043;-75
2022/01/21 02:25:50;;;;;;;9.43;3.40;;;;;;;2.74;86.81;101483.25;5073241;28;20044;-75
2022/01/21 02:28:16;;;;;;;9.02;3.40;;;;;;;2.75;86.66;101485.84;5076936;28;20051;-76
2022/01/21 02:30:58;;;;;;;12.40;3.63;;;;;;;2.76;86.94;101477.00;5073850;28;20040;-76
2022/01/21 02:33:25;;;;;;;8.15;3.08;;;;;;;2.77;86.20;101478.72;5075590;28;20046;-75
2022/01/21 02:35:50;;;;;;;8.98;3.30;;;;;;;2.77;86.68;101470.81;5073821;28;20032;-75
2022/01/21 02:38:16;;;;;;;8.23;3.20;;;;;;;2.77;86.19;101481.38;5075164;28;20039;-76
2022/01/21 02:40:42;;;;;;;10.68;4.00;;;;;;;2.78;86.63;101490.16;5072908;28;20028;-75
2022/01/21 02:43:08;;;;;;;8.18;3.40;;;;;;;2.76;86.28;101490.22;5074652;28;20104;-76
2022/01/21 02:45:33;;;;;;;10.30;3.70;;;;;;;2.71;87.03;101488.63;5073695;28;20093;-76
2022/01/21 02:48:00;;;;;;;10.18;3.30;;;;;;;2.68;86.96;101488.75;5074727;28;20040;-76
2022/01/21 02:50:25;;;;;;;9.82;3.58;;;;;;;2.68;86.93;101494.88;5072331;28;20031;-75
2022/01/21 02:53:08;;;;;;;11.45;3.35;;;;;;;2.69;87.10;101490.47;5074887;28;20032;-76
2022/01/21 02:55:34;;;;;;;9.50;3.70;;;;;;;2.71;87.41;101491.28;5076810;28;20046;-76
2022/01/21 02:57:59;;;;;;;11.15;3.63;;;;;;;2.72;86.83;101483.31;5073998;28;20393;-76
2022/01/21 03:00:24;;;;;;;8.88;3.70;;;;;;;2.70;87.18;101487.78;5073126;28;20941;-75
2022/01/21 03:02:50;;;;;;;9.23;4.07;;;;;;;2.74;86.77;101485.91;5074583;28;20035;-75
2022/01/21 03:05:18;;;;;;;8.43;3.60;;;;;;;2.78;87.10;101491.03;5074525;28;20040;-75
2022/01/21 03:07:44;;;;;;;9.65;3.45;;;;;;;2.79;86.83;101498.03;5080930;28;20031;-75
2022/01/21 03:10:11;;;;;;;11.05;3.50;;;;;;;2.77;86.87;101494.59;5073789;28;20032;-77
2022/01/21 03:12:36;;;;;;;6.82;3.35;;;;;;;2.77;86.98;101504.28;5076213;28;20024;-76
2022/01/21 03:15:03;;;;;;;11.93;3.67;;;;;;;2.78;87.46;101500.72;5074904;28;20092;-75
2022/01/21 03:17:28;;;;;;;12.43;3.92;;;;;;;2.76;86.57;101505.19;5072281;28;20036;-76
2022/01/21 03:19:53;;;;;;;7.25;3.47;;;;;;;2.78;86.96;101511.28;5074000;28;20066;-77
2022/01/21 03:22:19;;;;;;;7.93;2.97;;;;;;;2.77;86.77;101504.28;5090879;28;20071;-76
2022/01/21 03:24:44;;;;;;;11.73;3.72;;;;;;;2.78;87.04;101493.66;5073581;28;20043;-75
2022/01/21 03:27:09;;;;;;;11.70;3.63;;;;;;;2.78;87.43;101496.31;5073436;28;20044;-75
2022/01/21 03:29:35;;;;;;;7.80;3.25;;;;;;;2.79;86.65;101498.03;5076971;28;20801;-75
2022/01/21 03:32:00;;;;;;;8.35;3.78;;;;;;;2.81;87.06;101495.34;5084089;28;21030;-76
2022/01/21 03:34:26;;;;;;;8.38;3.63;;;;;;;2.78;86.57;101498.09;5078354;28;20047;-75
2022/01/21 03:36:53;;;;;;;13.80;3.70;;;;;;;2.77;86.86;101493.72;5076738;28;20073;-76
2022/01/21 03:39:19;;;;;;;10.38;3.28;;;;;;;2.76;87.14;101503.41;5075372;28;20488;-75
2022/01/21 03:41:44;;;;;;;9.80;3.42;;;;;;;2.74;86.94;101502.59;5076316;28;20031;-75
2022/01/21 03:44:09;;;;;;;9.40;3.70;;;;;;;2.75;86.83;101511.38;5077554;28;20028;-75
2022/01/21 03:46:35;;;;;;;8.77;3.10;;;;;;;2.72;87.20;101500.94;5082187;28;20031;-76
2022/01/21 03:49:03;;;;;;;7.43;2.83;;;;;;;2.70;86.52;101506.25;5075627;28;20036;-75
2022/01/21 03:51:28;;;;;;;8.82;3.30;;;;;;;2.68;87.33;101508.09;5082740;28;20036;-76
2022/01/21 03:53:54;;;;;;;9.10;3.13;;;;;;;2.71;87.32;101507.13;5075852;28;20046;-76
2022/01/21 03:56:19;;;;;;;12.77;3.10;;;;;;;2.71;87.29;101515.03;5094279;28;20103;-76
2022/01/21 03:58:44;;;;;;;6.95;3.08;;;;;;;2.68;87.12;101500.16;5077046;28;20035;-76
2022/01/21 04:01:10;;;;;;;8.40;3.22;;;;;;;2.66;87.32;101499.34;5081809;28;20031;-75
2022/01/21 04:03:36;;;;;;;9.57;3.17;;;;;;;2.67;87.76;101502.84;5081275;28;20050;-76
2022/01/21 04:06:01;;;;;;;7.97;3.47;;;;;;;2.64;86.92;101503.81;5082030;28;20036;-76
2022/01/21 04:08:26;;;;;;;11.70;2.97;;;;;;;2.62;87.46;101497.72;5076353;28;20081;-75
2022/01/21 04:10:52;;;;;;;9.73;3.10;;;;;;;2.61;87.52;101490.72;5082679;28;20504;-75
2022/01/21 04:13:19;;;;;;;7.65;2.78;;;;;;;2.57;87.40;101490.88;5085289;28;20039;-75
2022/01/21 04:15:47;;;;;;;10.05;3.10;;;;;;;2.57;86.98;101504.94;5086616;28;20031;-75
2022/01/21 04:18:13;;;;;;;8.70;2.63;;;;;;;2.58;87.76;101495.25;5086420;27;20039;-76
2022/01/21 04:20:39;;;;;;;8.18;3.00;;;;;;;2.60;87.44;101504.84;5078508;27;20035;-76
2022/01/21 04:23:05;;;;;;;6.70;2.75;;;;;;;2.59;87.36;101497.81;5080466;27;20085;-75
2022/01/21 04:25:30;;;;;;;9.35;2.85;;;;;;;2.63;87.46;101511.78;5087235;28;20084;-76
2022/01/21 04:27:55;;;;;;;9.15;3.20;;;;;;;2.64;87.48;101514.38;5077462;27;20475;-75
2022/01/21 04:30:21;;;;;;;11.23;3.58;;;;;;;2.63;87.05;101502.09;5082651;28;20102;-76
2022/01/21 04:32:46;;;;;;;10.05;3.38;;;;;;;2.62;87.16;101508.28;5082285;28;20040;-76
2022/01/21 04:35:12;;;;;;;8.85;3.60;;;;;;;2.66;87.00;101517.84;5076438;28;20040;-75
2022/01/21 04:37:43;;;;;;;10.82;3.50;;;;;;;2.69;87.20;101516.88;5079230;28;20032;-77
2022/01/21 04:40:13;;;;;;;6.80;3.00;;;;;;;2.64;87.22;101511.75;5076597;28;20028;-76
2022/01/21 04:48:07;;;;;;;8.88;3.47;;;;;;;2.63;86.89;101510.00;5093245;28;20060;-76
2022/01/21 04:50:41;;;;;;;6.85;3.22;;;;;;;2.64;87.18;101506.47;5075611;28;20062;-76
2022/01/21 04:53:07;;;;;;;7.78;3.47;;;;;;;2.61;87.38;101505.69;5080465;28;20051;-76
2022/01/21 04:55:33;;;;;;;8.32;3.28;;;;;;;2.53;87.17;101506.81;5076352;28;20032;-76
2022/01/21 04:57:59;;;;;;;7.47;3.08;;;;;;;2.57;87.08;101497.00;5077368;28;20107;-76
2022/01/21 05:00:24;;;;;;;10.48;3.30;;;;;;;2.57;87.36;101504.94;5077113;28;20059;-76
2022/01/21 05:02:50;;;;;;;9.82;3.20;;;;;;;2.60;87.50;101506.59;5083723;28;20039;-76
2022/01/21 05:05:15;;;;;;;7.80;3.50;;;;;;;2.55;87.02;101514.69;5075913;28;20032;-76
2022/01/21 05:07:42;;;;;;;8.15;2.75;;;;;;;2.47;87.12;101514.06;5084657;28;20028;-75
2022/01/21 05:10:08;;;;;;;10.65;2.85;;;;;;;2.47;87.39;101514.06;5077215;28;20036;-75
2022/01/21 05:12:34;;;;;;;8.20;3.38;;;;;;;2.44;87.73;101503.59;5076998;28;20036;-75
2022/01/21 05:17:26;;;;;;;8.57;3.70;;;;;;;2.51;87.43;101507.78;5093616;28;20041;-76
2022/01/21 05:19:52;;;;;;;9.57;3.67;;;;;;;2.53;87.35;101505.94;5091438;28;20040;-76
2022/01/21 05:22:17;;;;;;;10.00;4.03;;;;;;;2.54;87.20;101505.03;5075716;28;20034;-75
2022/01/21 05:24:43;;;;;;;11.00;3.85;;;;;;;2.50;87.25;101514.81;5075155;28;20092;-76
2022/01/21 05:27:11;;;;;;;9.23;3.75;;;;;;;2.50;87.08;101512.19;5074932;28;20028;-75
2022/01/21 05:29:36;;;;;;;8.38;3.28;;;;;;;2.50;86.98;101512.19;5086505;27;20881;-75
2022/01/21 05:32:04;;;;;;;11.23;4.03;;;;;;;2.51;86.94;101516.56;5084217;28;20096;-75
2022/01/21 05:34:29;;;;;;;8.40;3.60;;;;;;;2.50;87.14;101512.19;5077261;28;20399;-76
2022/01/21 05:36:55;;;;;;;11.82;3.83;;;;;;;2.51;87.08;101513.91;5095573;27;20095;-75
2022/01/21 05:39:21;;;;;;;9.07;3.40;;;;;;;2.47;87.28;101516.69;5085390;27;20043;-76
2022/01/21 05:41:49;;;;;;;13.32;3.92;;;;;;;2.48;86.94;101516.66;5079274;27;20027;-77
2022/01/21 05:46:23;;;;;;;9.27;3.78;;;;;;;2.49;87.32;101510.47;5078841;27;20029;-75
2022/01/21 05:47:04;;;;;;;12.25;3.85;;;;;;;2.48;86.93;101524.56;5101643;27;20039;-75
2022/01/21 05:49:32;;;;;;;6.97;3.55;;;;;;;2.49;86.76;101521.03;5077256;28;20032;-75
2022/01/21 05:52:06;;;;;;;8.52;3.17;;;;;;;2.52;86.50;101526.19;5083992;27;20096;-75
2022/01/21 05:54:32;;;;;;;8.48;3.22;;;;;;;2.54;86.65;101528.78;5097327;27;20074;-75
2022/01/21 05:56:59;;;;;;;8.95;3.25;;;;;;;2.52;86.63;101530.63;5096360;27;20450;-75
2022/01/21 05:59:24;;;;;;;11.45;4.03;;;;;;;2.54;87.08;101534.06;5095330;27;20039;-76
2022/01/21 06:01:50;;;;;;;11.00;3.95;;;;;;;2.54;87.55;101542.00;5083346;27;20035;-76
2022/01/21 06:04:16;;;;;;;7.88;3.22;;;;;;;2.55;87.43;101542.88;5078390;27;20470;-76
2022/01/21 06:06:41;;;;;;;11.85;3.58;;;;;;;2.55;87.25;101543.72;5084700;28;20061;-76
2022/01/21 06:09:07;;;;;;;10.30;3.47;;;;;;;2.56;86.54;101534.03;5079707;28;20042;-76
2022/01/21 06:11:33;;;;;;;8.65;3.28;;;;;;;2.57;87.34;101530.47;5085846;27;20104;-75
2022/01/21 06:14:00;;;;;;;7.78;3.25;;;;;;;2.54;86.73;101531.44;5095763;28;20092;-75
2022/01/21 06:16:26;;;;;;;10.40;3.47;;;;;;;2.52;87.26;101533.25;5084510;28;20051;-75
2022/01/21 06:18:51;;;;;;;8.05;3.40;;;;;;;2.46;86.88;101522.91;5077180;28;20032;-75
2022/01/21 06:21:16;;;;;;;9.02;3.55;;;;;;;2.43;87.37;101523.84;5084961;28;20035;-75
2022/01/21 06:23:42;;;;;;;9.48;3.80;;;;;;;2.43;86.92;101530.91;5079517;28;20024;-75
2022/01/21 06:26:07;;;;;;;9.93;3.22;;;;;;;2.37;87.22;101531.97;5082464;28;20024;-76
2022/01/21 06:28:33;;;;;;;8.10;3.17;;;;;;;2.39;87.36;101534.56;5082392;28;20061;-75
2022/01/21 06:30:58;;;;;;;10.27;3.50;;;;;;;2.39;86.97;101529.28;5081589;27;20075;-75
2022/01/21 06:33:24;;;;;;;10.38;4.20;;;;;;;2.37;87.39;101539.03;5077865;28;20028;-75
2022/01/21 06:35:50;;;;;;;7.40;3.47;;;;;;;2.33;87.26;101537.34;5094773;27;20031;-74
2022/01/21 06:38:16;;;;;;;8.88;3.20;;;;;;;2.29;87.39;101539.22;5078332;28;20039;-76
2022/01/21 06:40:42;;;;;;;7.82;3.38;;;;;;;2.29;87.51;101547.13;5084226;27;20042;-74
2022/01/21 06:43:16;;;;;;;8.98;3.55;;;;;;;2.34;87.45;101547.00;5078873;27;20040;-76
2022/01/21 06:45:42;;;;;;;8.68;3.60;;;;;;;2.31;87.30;101553.22;5083709;27;20036;-76
2022/01/21 06:48:08;;;;;;;11.63;4.07;;;;;;;2.28;87.45;101553.31;5073872;28;20036;-77
2022/01/21 06:50:35;;;;;;;9.73;4.18;;;;;;;2.28;86.60;101560.38;5076343;27;20115;-76
2022/01/21 06:53:01;;;;;;;6.55;3.40;;;;;;;2.26;87.46;101560.44;5073829;27;20371;-76
2022/01/21 06:55:26;;;;;;;8.93;3.35;;;;;;;2.27;86.97;101563.94;5083781;27;20032;-76
2022/01/21 06:57:52;;;;;;;8.02;3.58;;;;;;;2.24;87.36;101572.81;5078485;27;20460;-76
2022/01/21 07:00:18;;;;;;;11.07;3.47;;;;;;;2.28;86.97;101568.31;5093986;28;20055;-76
2022/01/21 07:02:45;;;;;;;10.88;4.78;;;;;;;2.26;87.69;101572.75;5077195;28;20103;-77
2022/01/21 07:05:10;;;;;;;12.90;7.07;;;;;;;2.25;87.75;101581.59;5093580;28;20028;-77
2022/01/21 07:07:36;;;;;;;13.07;6.90;;;;;;;2.17;87.88;101580.03;5077953;28;20733;-76
2022/01/21 07:10:06;;;;;;;11.50;5.63;;;;;;;2.20;87.67;101590.50;5075527;28;20374;-75
2022/01/21 07:12:33;;;;;;;12.65;5.70;;;;;;;2.24;87.97;101586.00;5077691;28;20031;-76
2022/01/21 07:15:03;;;;;;;14.50;5.20;;;;;;;2.31;87.92;101586.69;5082615;28;20031;-77
2022/01/21 07:17:28;;;;;;;8.88;4.18;;;;;;;2.31;88.07;101586.69;5075058;28;20038;-76
2022/01/21 07:19:54;;;;;;;10.30;5.45;;;;;;;2.33;88.33;101590.13;5091131;28;20036;-75
2022/01/21 07:22:19;;;;;;;8.57;4.70;;;;;;;2.35;87.97;101594.47;5074834;27;20142;-76
2022/01/21 07:24:45;;;;;;;11.98;4.70;;;;;;;2.38;88.40;101593.53;5074997;28;20116;-76
2022/01/21 07:27:10;;;;;;;9.93;4.30;;;;;;;2.37;88.07;101586.53;5078138;28;20054;-76
2022/01/21 07:29:36;;;;;;;7.63;3.72;;;;;;;2.40;87.61;101584.66;5078190;28;20059;-76
2022/01/21 07:32:02;;;;;;;10.23;4.22;;;;;;;2.41;88.01;101585.53;5077578;28;20032;-77
2022/01/21 07:34:27;;;;;;;8.70;4.22;;;;;;;2.38;88.10;101583.84;5075908;28;20031;-76
2022/01/21 07:36:54;;;;;;;9.45;4.80;;;;;;;2.34;88.52;101584.81;5078258;28;20080;-76
2022/01/21 07:39:20;;;;;;;11.50;5.03;;;;;;;2.35;88.16;101583.91;5077228;28;20059;-76
2022/01/21 07:41:45;;;;;;;24.10;13.52;;;;;;;2.33;88.82;101592.78;5078364;28;20031;-76
2022/01/21 07:44:12;;;;;;;21.98;13.52;;;;;;;2.39;88.69;101590.00;5076232;28;20039;-77
2022/01/21 07:46:42;;;;;;;22.27;11.05;;;;;;;2.36;88.69;101590.03;5078524;27;20033;-77
2022/01/21 07:49:07;;;;;;;12.73;6.85;;;;;;;2.30;88.70;101588.47;5082250;28;20070;-77
2022/01/21 07:51:33;;;;;;;12.43;5.93;;;;;;;2.35;88.36;101590.97;5081445;28;20032;-77
2022/01/21 07:53:58;;;;;;;11.65;5.50;;;;;;;2.37;88.61;101586.53;5088577;27;20063;-75
2022/01/21 07:56:24;;;;;;;11.35;4.90;;;;;;;2.41;88.73;101593.44;5078133;27;20038;-77
2022/01/21 07:58:51;;;;;;;10.20;5.40;;;;;;;2.44;88.34;101596.00;5079359;28;20039;-75
2022/01/21 08:01:16;;;;;;;13.75;6.00;;;;;;;2.43;88.56;101595.13;5082665;28;20142;-76
2022/01/21 08:03:42;;;;;;;13.65;6.07;;;;;;;2.41;88.74;101602.22;5086140;28;20113;-76
2022/01/21 08:06:08;;;;;;;12.68;5.65;;;;;;;2.47;88.36;101611.75;5085866;28;20730;-76
2022/01/21 08:08:33;;;;;;;10.38;5.45;;;;;;;2.45;88.56;101613.56;5094712;28;20040;-77
2022/01/21 08:10:59;;;;;;;11.90;5.35;;;;;;;2.45;88.73;101608.28;5077648;28;20120;-77
2022/01/21 08:13:27;;;;;;;8.98;5.63;;;;;;;2.43;88.73;101620.66;5097735;27;20035;-76
2022/01/21 08:15:52;;;;;;;15.25;6.30;;;;;;;2.44;88.57;101617.09;5095959;27;20535;-77
2022/01/21 08:18:18;;;;;;;12.00;5.60;;;;;;;2.46;88.83;101613.50;5079070;28;20042;-76
2022/01/21 08:20:43;;;;;;;9.77;5.88;;;;;;;2.49;89.26;101621.34;5079370;28;20122;-76
2022/01/21 08:23:14;;;;;;;10.95;6.28;;;;;;;2.45;89.08;101624.13;5081793;27;20039;-76
2022/01/21 08:25:40;;;;;;;11.35;6.50;;;;;;;2.47;88.64;101611.75;5085986;27;20097;-77
2022/01/21 08:28:06;;;;;;;11.32;5.95;;;;;;;2.58;89.23;101619.34;5079666;27;20027;-76
2022/01/21 08:30:32;;;;;;;9.98;5.70;;;;;;;2.62;89.04;101624.47;5086370;28;20044;-77
2022/01/21 08:32:58;;;;;;;10.05;5.80;;;;;;;2.65;89.61;101626.16;5078578;28;20038;-76
2022/01/21 08:35:27;;;;;;;11.02;6.03;;;;;;;2.66;88.83;101631.38;5083400;28;20028;-77
2022/01/21 08:37:53;;;;;;;11.90;5.95;;;;;;;2.69;88.97;101617.22;5085045;28;20043;-76
2022/01/21 08:40:30;;;;;;;;;;;;;;;;;;;;;
2022/01/21 08:42:56;;;;;;;10.10;5.68;;;;;;;2.75;88.92;101617.91;5096920;28;20123;-76
2022/01/21 08:45:22;;;;;;;9.82;5.47;;;;;;;2.75;89.24;101614.41;5098954;28;20052;-75
2022/01/21 08:47:47;;;;;;;9.43;5.03;;;;;;;2.71;88.84;101603.06;5079991;27;20051;-76
2022/01/21 08:50:16;;;;;;;8.35;4.68;;;;;;;2.75;88.77;101609.97;5084311;27;20109;-75
2022/01/21 08:52:42;;;;;;;10.15;5.53;;;;;;;2.76;88.85;101603.78;5079671;27;20114;-75
2022/01/21 08:55:11;;;;;;;9.70;5.57;;;;;;;2.76;89.20;101609.06;5079170;28;20036;-76
2022/01/21 08:57:37;;;;;;;;;;;;;;;2.79;88.95;101613.38;5080510;27;20035;-76
2022/01/21 09:00:12;;;;;;;11.65;5.25;;;;;;;2.79;89.56;101631.88;5084631;27;19955;-76
2022/01/21 09:02:37;;;;;;;10.07;4.97;;;;;;;2.73;89.11;101619.72;5077930;27;20031;-76
2022/01/21 09:05:03;;;;;;;9.68;5.47;;;;;;;2.72;89.16;101619.78;5079472;27;20028;-76
2022/01/21 09:07:29;;;;;;;10.70;5.47;;;;;;;2.71;89.98;101613.63;5084056;28;20107;-76
2022/01/21 09:09:54;;;;;;;10.13;6.05;;;;;;;2.73;89.26;101616.22;5086164;28;20074;-76
2022/01/21 09:12:19;;;;;;;11.68;5.70;;;;;;;2.72;89.17;101617.13;5081197;28;20066;-77
2022/01/21 09:14:45;;;;;;;9.07;5.72;;;;;;;2.73;89.23;101609.16;5088255;27;20035;-75
2022/01/21 09:17:10;;;;;;;10.05;5.90;;;;;;;2.78;89.96;101616.94;5087747;27;20019;-76
2022/01/21 09:19:36;;;;;;;8.82;6.00;;;;;;;2.79;90.01;101619.53;5085761;27;20035;-76
2022/01/21 09:22:02;;;;;;;10.93;6.03;;;;;;;2.78;89.96;101615.16;5093637;28;20020;-74
2022/01/21 09:24:29;;;;;;;10.27;6.10;;;;;;;2.81;89.63;101617.72;5080249;27;20046;-75
2022/01/21 09:26:55;;;;;;;7.60;5.43;;;;;;;2.82;89.83;101623.84;5079772;27;20039;-76
2022/01/21 09:29:20;;;;;;;7.82;5.72;;;;;;;2.81;90.18;101625.63;5078762;28;20123;-76
2022/01/21 09:31:45;;;;;;;14.23;5.90;;;;;;;2.80;90.00;101626.53;5084638;28;20035;-75
2022/01/21 09:34:11;;;;;;;8.68;5.53;;;;;;;2.78;90.26;101627.50;5078061;28;20135;-76
2022/01/21 09:36:42;;;;;;;9.45;5.30;;;;;;;2.78;90.12;101630.16;5086192;27;20027;-75
2022/01/21 09:39:08;;;;;;;9.80;6.07;;;;;;;2.80;90.31;101634.47;5080420;27;20040;-76
2022/01/21 09:41:34;;;;;;;12.55;6.10;;;;;;;2.76;90.15;101617.00;5078818;27;20039;-76
2022/01/21 09:44:02;;;;;;;11.23;5.25;;;;;;;2.76;90.33;101611.72;5084202;28;20081;-76
2022/01/21 09:46:33;;;;;;;7.53;5.30;;;;;;;2.78;90.03;101609.88;5095965;27;20040;-75
2022/01/21 09:49:25;;;;;;;9.45;4.97;;;;;;;2.84;90.72;101611.50;5079886;27;20473;-75
2022/01/21 09:52:12;;;;;;;8.40;4.93;;;;;;;2.91;90.42;101615.69;5082577;27;20032;-76
2022/01/21 09:54:43;;;;;;;9.30;5.15;;;;;;;2.94;90.59;101626.16;5079696;27;20088;-76
2022/01/21 09:57:15;;;;;;;8.88;5.25;;;;;;;2.89;90.55;101628.06;5077411;27;20131;-77
2022/01/21 09:59:41;;;;;;;9.93;5.68;;;;;;;2.87;90.31;101631.66;5096224;27;20028;-76
2022/01/21 10:02:07;;;;;;;7.97;4.88;;;;;;;2.91;90.49;101633.31;5078736;28;20055;-76
2022/01/21 10:04:39;;;;;;;8.93;5.40;;;;;;;2.99;91.01;101626.00;5078352;28;20095;-76
2022/01/21 10:07:05;;;;;;;10.70;5.18;;;;;;;2.95;90.46;101625.22;5089934;28;20028;-77
2022/01/21 10:09:31;;;;;;;8.85;5.40;;;;;;;2.93;90.80;101636.75;5077701;28;20042;-76
2022/01/21 10:11:58;;;;;;;10.25;5.25;;;;;;;2.92;90.80;101627.09;5093425;28;20028;-75
2022/01/21 10:14:25;;;;;;;9.80;4.78;;;;;;;2.91;90.70;101631.53;5073969;28;20031;-76
2022/01/21 10:16:51;;;;;;;7.35;4.68;;;;;;;2.89;91.09;101643.91;5083941;28;20719;-76
2022/01/21 10:19:25;;;;;;;10.13;5.38;;;;;;;2.85;91.09;101634.34;5076309;28;20054;-76
2022/01/21 10:22:03;;;;;;;9.00;4.97;;;;;;;2.87;91.53;101637.81;5094680;27;20024;-75
2022/01/21 10:24:29;;;;;;;9.13;5.40;;;;;;;2.93;91.42;101647.31;5077604;27;20040;-76
2022/01/21 10:26:56;;;;;;;13.13;5.85;;;;;;;2.95;91.63;101646.38;5077280;28;20032;-76
2022/01/21 10:29:22;;;;;;;8.82;5.05;;;;;;;3.02;91.60;101644.41;5083856;27;20028;-76
2022/01/21 10:31:58;;;;;;;9.82;5.93;;;;;;;3.05;91.92;101645.16;5077380;28;20106;-76
2022/01/21 10:34:25;;;;;;;8.30;5.72;;;;;;;3.10;91.29;101645.00;5079627;28;20066;-74
2022/01/21 10:36:55;;;;;;;11.07;5.55;;;;;;;3.13;91.32;101645.78;5075299;27;20058;-75
2022/01/21 10:39:29;;;;;;;12.02;6.45;;;;;;;3.13;91.34;101653.72;5096545;27;20107;-76
2022/01/21 10:41:57;;;;;;;8.20;5.55;;;;;;;3.12;91.28;101646.69;5078385;28;20131;-75
2022/01/21 10:44:25;;;;;;;11.52;5.55;;;;;;;3.14;91.77;101655.44;5078128;28;20102;-76
2022/01/21 10:47:24;;;;;;;11.30;5.53;;;;;;;3.22;91.85;101652.53;5078286;27;20032;-76
2022/01/21 10:50:00;;;;;;;7.55;5.40;;;;;;;3.28;91.90;101648.84;5062380;28;20094;-75
2022/01/21 10:52:38;;;;;;;11.68;5.57;;;;;;;3.32;91.71;101655.78;5083261;28;20050;-75
2022/01/21 10:55:06;;;;;;;8.48;5.55;;;;;;;3.31;91.87;101654.03;5077607;28;20146;-76
2022/01/21 10:57:32;;;;;;;11.00;5.93;;;;;;;3.32;91.72;101654.00;5100435;27;20036;-76
2022/01/21 11:00:09;;;;;;;10.38;5.80;;;;;;;3.35;91.85;101656.53;5094351;27;20036;-76
2022/01/21 11:02:50;;;;;;;10.73;6.25;;;;;;;3.33;91.66;101652.22;5078384;28;20494;-76
2022/01/21 11:05:23;;;;;;;8.80;5.50;;;;;;;3.34;91.82;101653.94;5084917;27;20125;-76
2022/01/21 11:08:00;;;;;;;10.88;5.88;;;;;;;3.36;91.78;101646.84;5093395;28;20056;-75
2022/01/21 11:10:31;;;;;;;8.93;5.75;;;;;;;3.37;92.09;101652.06;5084024;27;20062;-75
2022/01/21 11:12:58;;;;;;;11.18;6.47;;;;;;;3.40;92.12;101644.03;5094483;28;20035;-76
2022/01/21 11:15:23;;;;;;;10.55;6.03;;;;;;;3.38;92.22;101645.88;5077340;28;20032;-76
2022/01/21 11:18:00;;;;;;;11.88;6.82;;;;;;;3.36;92.12;101647.69;5078665;28;20054;-76
2022/01/21 11:20:31;;;;;;;9.10;5.80;;;;;;;3.40;92.08;101651.97;5076676;28;20039;-75
2022/01/21 11:23:00;;;;;;;10.13;5.57;;;;;;;3.41;92.03;101645.75;5081365;27;20949;-76
2022/01/21 11:25:49;;;;;;;9.25;5.65;;;;;;;3.44;92.56;101650.09;5082994;28;20573;-76
2022/01/21 11:28:18;;;;;;;;;;;;;;;3.47;92.44;101636.75;5084096;28;20039;-75
2022/01/21 11:30:44;;;;;;;7.88;5.30;;;;;;;3.55;92.39;101642.66;5093102;28;19931;-76
2022/01/21 11:33:11;;;;;;;7.80;5.03;;;;;;;3.54;92.34;101643.56;5081316;28;20979;-76
2022/01/21 11:35:37;;;;;;;8.65;5.70;;;;;;;3.52;92.58;101639.25;5083127;28;20036;-75
2022/01/21 11:38:05;;;;;;;9.95;5.38;;;;;;;3.55;92.17;101632.06;5081929;28;20031;-76
2022/01/21 11:40:31;;;;;;;8.75;5.63;;;;;;;3.58;92.40;101631.97;5082375;28;20035;-75
2022/01/21 11:42:57;;;;;;;10.43;5.88;;;;;;;3.56;92.25;101625.88;5077271;28;20043;-76
2022/01/21 11:50:52;;;;;;;9.77;5.35;;;;;;;3.56;92.44;101604.72;5060527;28;20052;-76
2022/01/21 11:54:03;;;;;;;11.25;5.82;;;;;;;3.61;92.66;101602.78;5077071;28;20043;-76
2022/01/21 11:56:30;;;;;;;10.90;5.30;;;;;;;3.59;92.51;101593.16;5095929;28;20054;-76
2022/01/21 11:59:04;;;;;;;11.02;5.97;;;;;;;3.57;92.76;101593.22;5082331;28;20039;-75
2022/01/21 12:01:48;;;;;;;12.02;6.38;;;;;;;3.57;92.89;101601.16;5080563;28;20027;-76
2022/01/21 12:04:15;;;;;;;12.48;6.18;;;;;;;3.60;92.67;101595.75;5074512;28;20047;-76
2022/01/21 12:06:41;;;;;;;8.23;5.60;;;;;;;3.62;92.86;101595.69;5075508;28;20028;-76
2022/01/21 12:09:09;;;;;;;10.27;6.25;;;;;;;3.59;92.90;101601.97;5073820;28;20160;-76
2022/01/21 12:11:37;;;;;;;11.03;5.83;;;;;;;3.62;92.61;101593.06;5074187;28;20095;-78
2022/01/21 12:14:21;;;;;;;10.88;5.38;;;;;;;3.64;92.98;101589.44;5093688;28;20342;-76
2022/01/21 12:16:54;;;;;;;8.63;5.68;;;;;;;3.67;92.84;101589.34;5091266;28;20105;-76
2022/01/21 12:19:35;;;;;;;9.65;5.38;;;;;;;3.70;93.11;101573.34;5077697;28;20027;-77
2022/01/21 12:22:14;;;;;;;10.63;5.28;;;;;;;3.74;93.26;101567.03;5081583;28;20027;-77
2022/01/21 12:25:12;;;;;;;9.02;5.18;;;;;;;3.81;92.72;101566.84;5091048;28;20039;-76
2022/01/21 12:27:40;;;;;;;8.40;5.15;;;;;;;3.79;92.90;101565.13;5062900;28;20060;-75